createdAt,value
2023-03-08T00:01:53.700Z,12.30
2023-03-08T00:04:42.133Z,12.40
2023-03-08T00:07:30.645Z,12.60
2023-03-08T00:10:19.397Z,12.50
2023-03-08T00:13:09.291Z,12.10
2023-03-08T00:16:01.065Z,12.00
2023-03-08T00:18:49.765Z,11.90
2023-03-08T00:21:38.259Z,12.10
2023-03-08T00:24:26.792Z,12.20
2023-03-08T00:27:15.221Z,12.40
2023-03-08T00:30:06.119Z,12.10
2023-03-08T00:32:54.881Z,12.10
2023-03-08T00:35:43.316Z,12.40
2023-03-08T00:38:33.152Z,12.30
2023-03-08T00:41:21.706Z,12.30
2023-03-08T00:44:10.177Z,12.20
2023-03-08T00:47:00.138Z,12.40
2023-03-08T00:49:48.639Z,12.50
2023-03-08T00:52:37.021Z,12.00
2023-03-08T00:55:25.470Z,12.30
2023-03-08T00:58:13.890Z,12.50
2023-03-08T01:01:02.458Z,12.20
2023-03-08T01:03:52.444Z,12.10
2023-03-08T01:06:43.198Z,12.10
2023-03-08T01:09:31.619Z,12.30
2023-03-08T01:12:22.679Z,11.90
2023-03-08T01:15:11.844Z,11.60
2023-03-08T01:18:00.289Z,11.60
2023-03-08T01:23:46.726Z,11.30
2023-03-08T01:26:35.251Z,11.20
2023-03-08T01:29:23.692Z,11.30
2023-03-08T01:32:12.452Z,11.00
2023-03-08T01:35:04.438Z,11.10
2023-03-08T01:37:54.528Z,10.80
2023-03-08T01:40:42.977Z,11.00
2023-03-08T01:43:33.451Z,11.30
2023-03-08T01:46:27.625Z,11.20
2023-03-08T01:49:19.307Z,11.10
2023-03-08T01:52:12.476Z,10.80
2023-03-08T01:55:04.655Z,10.80
2023-03-08T01:57:55.662Z,10.90
2023-03-08T02:00:44.232Z,11.20
2023-03-08T02:03:32.726Z,11.00
2023-03-08T02:06:21.920Z,11.20
2023-03-08T02:09:10.645Z,11.40
2023-03-08T02:12:03.987Z,11.40
2023-03-08T02:14:52.704Z,11.30
2023-03-08T02:17:42.691Z,11.30
2023-03-08T02:20:33.068Z,11.30
2023-03-08T02:23:24.614Z,11.30
2023-03-08T02:26:13.193Z,10.80
2023-03-08T02:29:01.582Z,10.90
2023-03-08T02:31:50.006Z,11.20
2023-03-08T02:34:38.562Z,11.40
2023-03-08T02:37:27.007Z,11.60
2023-03-08T02:40:17.220Z,11.80
2023-03-08T02:43:06.127Z,11.90
2023-03-08T02:45:54.564Z,11.90
2023-03-08T02:48:43.125Z,12.00
2023-03-08T02:51:31.730Z,12.10
2023-03-08T02:54:20.149Z,12.20
2023-03-08T02:57:09.967Z,12.30
2023-03-08T02:59:58.404Z,12.40
2023-03-08T03:02:46.873Z,12.40
2023-03-08T03:05:35.358Z,12.30
2023-03-08T03:08:23.768Z,12.00
2023-03-08T03:11:13.685Z,11.70
2023-03-08T03:14:03.559Z,11.70
2023-03-08T03:16:52.038Z,11.60
2023-03-08T03:19:40.468Z,11.70
2023-03-08T03:22:29.549Z,11.60
2023-03-08T03:25:18.121Z,11.40
2023-03-08T03:28:06.737Z,11.00
2023-03-08T03:30:56.637Z,10.90
2023-03-08T03:33:45.291Z,10.70
2023-03-08T03:36:34.444Z,10.60
2023-03-08T03:39:23.376Z,10.60
2023-03-08T03:42:11.953Z,10.30
2023-03-08T03:45:00.433Z,10.30
2023-03-08T03:47:50.259Z,10.30
2023-03-08T03:50:38.679Z,10.50
2023-03-08T03:53:28.463Z,10.70
2023-03-08T03:56:19.102Z,10.70
2023-03-08T03:59:07.535Z,10.80
2023-03-08T04:01:55.930Z,10.90
2023-03-08T04:04:45.749Z,10.90
2023-03-08T04:07:34.563Z,11.00
2023-03-08T04:10:23.089Z,11.00
2023-03-08T04:13:12.741Z,11.00
2023-03-08T04:16:01.254Z,11.10
2023-03-08T04:18:53.627Z,10.90
2023-03-08T04:21:43.423Z,10.80
2023-03-08T04:24:32.026Z,10.60
2023-03-08T04:27:20.468Z,10.30
2023-03-08T04:30:10.113Z,9.70
2023-03-08T04:32:58.538Z,9.70
2023-03-08T04:35:46.997Z,9.60
2023-03-08T04:38:37.348Z,9.60
2023-03-08T04:41:26.035Z,9.90
2023-03-08T04:44:14.458Z,9.90
2023-03-08T04:47:02.983Z,9.40
2023-03-08T04:49:51.395Z,9.40
2023-03-08T04:52:40.053Z,9.60
2023-03-08T04:55:29.849Z,9.40
2023-03-08T04:58:18.719Z,9.70
2023-03-08T05:01:11.492Z,9.80
2023-03-08T05:03:59.950Z,9.80
2023-03-08T05:06:48.393Z,10.00
2023-03-08T05:09:37.108Z,9.70
2023-03-08T05:12:26.935Z,9.30
2023-03-08T05:15:15.390Z,9.40
2023-03-08T05:18:03.833Z,9.60
2023-03-08T05:20:56.543Z,9.70
2023-03-08T05:23:45.460Z,10.00
2023-03-08T05:26:33.935Z,9.80
2023-03-08T05:29:23.912Z,9.90
2023-03-08T05:32:12.659Z,9.90
2023-03-08T05:35:01.177Z,9.50
2023-03-08T05:37:49.625Z,9.30
2023-03-08T05:40:39.922Z,8.90
2023-03-08T05:43:28.840Z,8.80
2023-03-08T05:46:20.819Z,9.10
2023-03-08T05:49:09.316Z,9.10
2023-03-08T05:51:59.711Z,9.20
2023-03-08T05:54:48.107Z,9.40
2023-03-08T05:57:37.068Z,9.20
2023-03-08T06:00:26.504Z,8.80
2023-03-08T06:03:16.327Z,8.60
2023-03-08T06:06:05.170Z,8.80
2023-03-08T06:08:54.068Z,8.80
2023-03-08T06:11:42.476Z,9.20
2023-03-08T06:14:30.983Z,9.60
2023-03-08T06:17:19.391Z,9.90
2023-03-08T06:20:11.612Z,9.80
2023-03-08T06:23:00.084Z,10.10
2023-03-08T06:25:48.523Z,10.30
2023-03-08T06:28:37.482Z,10.40
2023-03-08T06:31:25.978Z,10.60
2023-03-08T06:34:14.382Z,10.60
2023-03-08T06:37:04.190Z,10.20
2023-03-08T06:39:52.595Z,10.20
2023-03-08T06:42:42.033Z,10.00
2023-03-08T06:45:30.549Z,9.80
2023-03-08T06:48:19.331Z,9.80
2023-03-08T06:51:08.065Z,10.10
2023-03-08T06:53:57.869Z,10.20
2023-03-08T06:56:47.164Z,10.20
2023-03-08T06:59:35.651Z,10.20
2023-03-08T07:02:24.104Z,10.40
2023-03-08T07:05:12.586Z,10.60
2023-03-08T07:08:01.151Z,10.70
2023-03-08T07:10:50.923Z,10.90
2023-03-08T07:13:39.781Z,11.00
2023-03-08T07:16:28.515Z,11.10
2023-03-08T07:19:16.944Z,11.30
2023-03-08T07:22:05.709Z,11.40
2023-03-08T07:24:54.157Z,11.70
2023-03-08T07:27:44.198Z,11.20
2023-03-08T07:30:32.659Z,11.20
2023-03-08T07:33:22.154Z,11.40
2023-03-08T07:36:10.956Z,11.50
2023-03-08T07:38:59.422Z,11.80
2023-03-08T07:41:47.885Z,11.80
2023-03-08T07:44:38.191Z,12.00
2023-03-08T07:47:26.635Z,12.30
2023-03-08T07:50:15.096Z,12.60
2023-03-08T07:53:04.436Z,12.80
2023-03-08T07:55:52.922Z,12.80
2023-03-08T07:58:41.354Z,12.90
2023-03-08T08:01:33.025Z,13.00
2023-03-08T08:04:23.204Z,13.00
2023-03-08T08:07:13.913Z,13.20
2023-03-08T08:10:02.384Z,13.30
2023-03-08T08:12:50.822Z,13.40
2023-03-08T08:15:39.292Z,13.50
2023-03-08T08:18:29.566Z,13.60
2023-03-08T08:21:18.115Z,13.70
2023-03-08T08:24:07.341Z,13.70
2023-03-08T08:26:56.047Z,13.80
2023-03-08T08:29:46.321Z,13.90
2023-03-08T08:32:35.487Z,14.00
2023-03-08T08:35:37.201Z,14.20
2023-03-08T08:38:30.755Z,14.20
2023-03-08T08:41:21.214Z,14.20
2023-03-08T08:44:09.709Z,14.30
2023-03-08T08:46:58.140Z,14.30
2023-03-08T08:49:46.668Z,14.40
2023-03-08T08:52:36.622Z,14.40
2023-03-08T08:55:25.134Z,14.40
2023-03-08T08:58:14.062Z,14.40
2023-03-08T09:01:02.598Z,14.50
2023-03-08T09:03:51.410Z,14.50
2023-03-08T09:06:40.169Z,14.60
2023-03-08T09:09:30.088Z,14.70
2023-03-08T09:12:18.552Z,14.70
2023-03-08T09:15:09.595Z,14.90
2023-03-08T09:17:58.183Z,14.90
2023-03-08T09:20:46.607Z,15.00
2023-03-08T09:23:35.062Z,15.10
2023-03-08T09:26:24.914Z,15.20
2023-03-08T09:29:13.715Z,15.20
2023-03-08T09:32:02.273Z,15.30
2023-03-08T09:34:51.310Z,15.40
2023-03-08T09:37:39.821Z,15.40
2023-03-08T09:40:29.196Z,15.50
2023-03-08T09:43:26.053Z,15.50
2023-03-08T09:46:16.217Z,15.60
2023-03-08T09:49:08.523Z,15.70
2023-03-08T09:52:04.992Z,15.80
2023-03-08T09:54:54.867Z,15.20
2023-03-08T09:57:53.017Z,15.40
2023-03-08T10:00:43.095Z,15.60
2023-03-08T10:03:55.104Z,15.80
2023-03-08T10:06:50.992Z,15.90
2023-03-08T10:09:42.031Z,16.10
2023-03-08T10:12:38.668Z,16.30
2023-03-08T10:15:29.297Z,16.40
2023-03-08T10:18:25.286Z,16.40
2023-03-08T10:21:18.256Z,16.60
2023-03-08T10:24:16.304Z,16.80
2023-03-08T10:27:21.864Z,16.90
2023-03-08T10:30:16.830Z,17.10
2023-03-08T10:33:09.189Z,17.10
2023-03-08T10:36:02.324Z,17.20
2023-03-08T10:39:06.151Z,17.30
2023-03-08T10:41:56.796Z,16.80
2023-03-08T10:47:37.299Z,17.80
2023-03-08T10:50:27.924Z,18.00
2023-03-08T10:53:22.774Z,17.90
2023-03-08T10:56:25.032Z,17.80
2023-03-08T10:59:21.312Z,17.60
2023-03-08T11:02:22.512Z,17.60
2023-03-08T11:05:20.147Z,17.70
2023-03-08T11:08:20.611Z,18.00
2023-03-08T11:11:11.630Z,18.30
2023-03-08T11:14:00.237Z,18.40
2023-03-08T11:17:03.815Z,18.50
2023-03-08T11:20:16.110Z,18.70
2023-03-08T11:23:15.372Z,18.90
2023-03-08T11:26:16.641Z,19.00
2023-03-08T11:29:16.946Z,19.20
2023-03-08T11:32:18.246Z,19.40
2023-03-08T11:35:19.654Z,19.70
2023-03-08T11:38:15.048Z,19.70
2023-03-08T11:41:14.686Z,19.70
2023-03-08T11:44:31.278Z,19.70
2023-03-08T11:47:45.567Z,19.60
2023-03-08T11:50:38.140Z,18.60
2023-03-08T11:53:36.776Z,18.30
2023-03-08T11:56:42.444Z,18.20
2023-03-08T11:59:34.709Z,18.70
2023-03-08T12:02:26.193Z,19.20
2023-03-08T12:05:24.900Z,19.40
2023-03-08T12:08:19.775Z,19.20
2023-03-08T12:11:14.819Z,19.10
2023-03-08T12:14:13.597Z,19.00
2023-03-08T12:17:08.970Z,19.30
2023-03-08T12:19:57.514Z,19.70
2023-03-08T12:25:41.585Z,20.00
2023-03-08T12:28:35.798Z,20.00
2023-03-08T12:31:29.830Z,19.90
2023-03-08T12:34:28.728Z,19.90
2023-03-08T12:43:16.314Z,21.50
2023-03-08T12:46:07.586Z,21.40
2023-03-08T12:48:58.182Z,21.60
2023-03-08T13:15:23.201Z,21.50
2023-03-08T13:18:16.962Z,21.60
2023-03-08T13:21:24.082Z,21.50
2023-03-08T13:24:20.565Z,21.10
2023-03-08T13:35:59.527Z,19.30
2023-03-08T13:41:48.807Z,18.40
2023-03-08T13:44:37.579Z,18.70
2023-03-08T13:47:28.015Z,19.20
2023-03-08T13:50:24.297Z,19.50
2023-03-08T13:53:17.694Z,19.40
2023-03-08T13:56:09.277Z,18.90
2023-03-08T13:58:59.938Z,18.20
2023-03-08T14:01:49.772Z,18.40
2023-03-08T14:04:44.189Z,18.10
2023-03-08T14:07:33.172Z,18.10
2023-03-08T14:10:24.468Z,18.20
2023-03-08T14:18:58.148Z,17.90
2023-03-08T14:21:50.760Z,17.60
2023-03-08T14:24:39.870Z,17.50
2023-03-08T14:27:39.012Z,17.50
2023-03-08T14:30:30.857Z,17.50
2023-03-08T14:33:30.646Z,17.30
2023-03-08T14:36:25.697Z,17.00
2023-03-08T14:39:19.272Z,16.80
2023-03-08T14:42:17.441Z,16.90
2023-03-08T14:45:17.782Z,16.90
2023-03-08T14:48:25.075Z,16.70
2023-03-08T14:51:29.181Z,16.60
2023-03-08T14:54:24.411Z,16.70
2023-03-08T14:57:18.974Z,16.80
2023-03-08T15:00:14.185Z,16.70
2023-03-08T15:05:53.633Z,16.40
2023-03-08T15:08:42.195Z,16.30
2023-03-08T15:11:31.675Z,16.40
2023-03-08T15:14:20.230Z,16.40
2023-03-08T15:17:08.729Z,16.40
2023-03-08T15:19:57.355Z,16.30
2023-03-08T15:22:49.319Z,16.10
2023-03-08T15:25:39.216Z,16.00
2023-03-08T15:28:27.981Z,16.00
2023-03-08T15:31:16.453Z,16.00
2023-03-08T15:34:04.881Z,16.00
2023-03-08T15:36:54.724Z,16.00
2023-03-08T15:39:44.599Z,16.10
2023-03-08T15:42:33.132Z,16.00
2023-03-08T15:45:21.656Z,15.90
2023-03-08T15:48:19.890Z,15.90
2023-03-08T15:51:12.942Z,15.80
2023-03-08T15:54:01.696Z,15.80
2023-03-08T15:56:51.539Z,15.80
2023-03-08T15:59:40.028Z,15.80
2023-03-08T16:02:28.465Z,14.70
2023-03-08T16:05:19.669Z,15.80
2023-03-08T16:08:08.171Z,15.80
2023-03-08T16:10:56.909Z,15.80
2023-03-08T16:13:48.902Z,16.00
2023-03-08T16:16:45.288Z,16.00
2023-03-08T16:19:34.818Z,16.00
2023-03-08T16:22:23.714Z,15.90
2023-03-08T16:25:12.212Z,16.00
2023-03-08T16:28:00.667Z,16.10
2023-03-08T16:30:50.500Z,15.90
2023-03-08T16:33:39.702Z,15.90
2023-03-08T16:36:28.152Z,15.70
2023-03-08T16:39:16.661Z,15.70
2023-03-08T16:42:05.283Z,15.60
2023-03-08T16:44:54.995Z,15.50
2023-03-08T16:47:44.953Z,15.50
2023-03-08T16:50:33.435Z,15.30
2023-03-08T16:53:21.967Z,15.30
2023-03-08T16:56:10.929Z,15.40
2023-03-08T16:59:00.927Z,15.30
2023-03-08T17:01:50.069Z,15.30
2023-03-08T17:04:39.893Z,15.40
2023-03-08T17:07:28.337Z,15.30
2023-03-08T17:10:16.956Z,15.20
2023-03-08T17:13:06.051Z,15.30
2023-03-08T17:15:54.609Z,15.30
2023-03-08T17:18:43.161Z,15.40
2023-03-08T17:21:38.048Z,15.50
2023-03-08T17:24:28.207Z,15.60
2023-03-08T17:27:16.876Z,15.60
2023-03-08T17:30:06.396Z,15.50
2023-03-08T17:32:54.927Z,15.40
2023-03-08T17:35:43.897Z,15.20
2023-03-08T17:38:34.635Z,15.30
2023-03-08T17:41:23.875Z,15.20
2023-03-08T17:44:12.463Z,15.30
2023-03-08T17:47:00.967Z,15.40
2023-03-08T17:49:49.768Z,15.40
2023-03-08T17:52:38.180Z,15.50
2023-03-08T17:55:28.387Z,15.50
2023-03-08T17:58:16.862Z,15.40
2023-03-08T18:01:10.426Z,15.50
2023-03-08T18:03:59.533Z,15.60
2023-03-08T18:06:47.965Z,15.60
2023-03-08T18:09:36.411Z,15.50
2023-03-08T18:12:26.279Z,15.50
2023-03-08T18:15:14.764Z,15.60
2023-03-08T18:18:03.257Z,15.60
2023-03-08T18:20:52.892Z,15.60
2023-03-08T18:23:42.744Z,15.60
2023-03-08T18:26:31.265Z,15.50
2023-03-08T18:29:22.008Z,15.50
2023-03-08T18:32:11.063Z,15.70
2023-03-08T18:34:59.661Z,15.70
2023-03-08T18:37:48.184Z,15.80
2023-03-08T18:40:36.664Z,15.90
2023-03-08T18:43:25.820Z,15.90
2023-03-08T18:46:16.016Z,16.10
2023-03-08T18:49:06.882Z,16.10
2023-03-08T18:51:55.388Z,16.00
2023-03-08T18:54:43.866Z,16.10
2023-03-08T18:57:32.368Z,14.50
2023-03-08T19:00:21.455Z,15.80
2023-03-08T19:03:11.265Z,16.00
2023-03-08T19:06:03.356Z,16.10
2023-03-08T19:08:51.870Z,16.10
2023-03-08T19:11:40.720Z,16.10
2023-03-08T19:14:29.173Z,16.20
2023-03-08T19:17:17.654Z,16.10
2023-03-08T19:20:08.710Z,16.00
2023-03-08T19:22:57.261Z,16.10
2023-03-08T19:25:59.535Z,16.10
2023-03-08T19:28:48.012Z,15.90
2023-03-08T19:31:38.517Z,15.90
2023-03-08T19:34:28.421Z,15.90
2023-03-08T19:37:18.625Z,15.90
2023-03-08T19:40:09.445Z,15.90
2023-03-08T19:42:57.897Z,16.00
2023-03-08T19:45:49.999Z,16.00
2023-03-08T19:48:38.711Z,15.90
2023-03-08T19:51:27.169Z,15.70
2023-03-08T19:54:17.604Z,15.70
2023-03-08T19:57:06.810Z,15.60
2023-03-08T19:59:57.625Z,15.50
2023-03-08T20:02:46.830Z,15.60
2023-03-08T20:05:41.649Z,15.50
2023-03-08T20:08:30.595Z,15.70
2023-03-08T20:11:20.781Z,15.80
2023-03-08T20:14:09.413Z,16.00
2023-03-08T20:16:59.198Z,16.00
2023-03-08T20:19:47.803Z,16.00
2023-03-08T20:22:36.299Z,15.90
2023-03-08T20:25:24.860Z,15.90
2023-03-08T20:28:14.738Z,15.80
2023-03-08T20:31:09.516Z,16.10
2023-03-08T20:33:58.470Z,16.10
2023-03-08T20:36:47.477Z,16.20
2023-03-08T20:39:36.205Z,16.30
2023-03-08T20:42:24.808Z,16.00
2023-03-08T20:45:15.066Z,16.00
2023-03-08T20:48:03.542Z,16.10
2023-03-08T20:50:58.451Z,15.90
2023-03-08T20:53:50.192Z,16.00
2023-03-08T20:56:38.662Z,16.00
2023-03-08T20:59:28.153Z,15.90
2023-03-08T21:02:18.304Z,16.00
2023-03-08T21:05:07.731Z,16.00
2023-03-08T21:07:56.209Z,16.00
2023-03-08T21:10:44.640Z,15.90
2023-03-08T21:13:33.257Z,15.90
2023-03-08T21:16:23.494Z,16.20
2023-03-08T21:19:13.370Z,16.10
2023-03-08T21:22:03.364Z,16.10
2023-03-08T21:24:51.830Z,15.90
2023-03-08T21:27:40.363Z,15.80
2023-03-08T21:30:30.693Z,15.90
2023-03-08T21:33:19.162Z,15.90
2023-03-08T21:36:09.836Z,15.90
2023-03-08T21:38:59.631Z,16.00
2023-03-08T21:41:50.518Z,15.90
2023-03-08T21:44:39.115Z,15.90
2023-03-08T21:47:27.572Z,16.00
2023-03-08T21:50:16.086Z,16.10
2023-03-08T21:53:05.979Z,16.10
2023-03-08T21:55:54.496Z,15.90
2023-03-08T21:58:43.182Z,15.80
2023-03-08T22:01:32.935Z,15.90
2023-03-08T22:04:21.482Z,16.00
2023-03-08T22:07:09.933Z,16.10
2023-03-08T22:09:59.753Z,16.10
2023-03-08T22:12:48.566Z,16.10
2023-03-08T22:15:37.012Z,16.10
2023-03-08T22:18:25.784Z,16.10
2023-03-08T22:21:14.380Z,16.10
2023-03-08T22:24:03.471Z,16.10
2023-03-08T22:26:53.274Z,16.00
2023-03-08T22:29:41.907Z,16.00
2023-03-08T22:32:30.442Z,16.00
2023-03-08T22:35:19.036Z,16.00
2023-03-08T22:38:07.461Z,16.00
2023-03-08T22:40:55.947Z,16.00
2023-03-08T22:43:46.136Z,15.90
2023-03-08T22:46:34.645Z,16.00
2023-03-08T22:49:23.108Z,15.80
2023-03-08T22:52:11.704Z,15.60
2023-03-08T22:55:00.197Z,15.60
2023-03-08T22:57:48.787Z,15.60
2023-03-08T23:00:38.724Z,15.30
2023-03-08T23:03:27.296Z,15.40
2023-03-08T23:06:16.252Z,15.40
2023-03-08T23:09:07.143Z,15.40
2023-03-08T23:11:55.557Z,15.60
2023-03-08T23:14:45.350Z,15.60
2023-03-08T23:17:35.572Z,15.70
2023-03-08T23:20:24.071Z,15.90
2023-03-08T23:23:12.565Z,15.60
2023-03-08T23:26:00.966Z,15.60
2023-03-08T23:28:49.634Z,15.70
2023-03-08T23:31:40.637Z,15.70
2023-03-08T23:34:30.621Z,15.80
2023-03-08T23:37:19.084Z,14.90
2023-03-08T23:40:10.866Z,15.80
2023-03-08T23:42:59.681Z,15.70
2023-03-08T23:45:48.172Z,15.70
2023-03-08T23:48:37.356Z,15.70
2023-03-08T23:51:29.336Z,15.70
2023-03-08T23:54:17.807Z,15.70
2023-03-08T23:57:06.304Z,15.70
2023-03-08T23:59:54.807Z,15.80
